createdAt,value
2023-05-23T00:01:15.431Z,61.42
2023-05-23T00:03:41.832Z,61.66
2023-05-23T00:06:08.194Z,61.69
2023-05-23T00:08:34.682Z,61.46
2023-05-23T00:11:00.958Z,61.48
2023-05-23T00:13:27.225Z,61.52
2023-05-23T00:15:54.072Z,61.35
2023-05-23T00:18:20.621Z,61.65
2023-05-23T00:20:46.860Z,61.16
2023-05-23T00:23:17.158Z,61.73
2023-05-23T00:25:45.862Z,61.52
2023-05-23T00:28:12.157Z,61.33
2023-05-23T00:30:38.463Z,61.26
2023-05-23T00:33:04.865Z,61.40
2023-05-23T00:35:37.155Z,61.40
2023-05-23T00:38:08.299Z,61.40
2023-05-23T00:40:34.550Z,61.09
2023-05-23T00:43:00.897Z,61.17
2023-05-23T00:45:28.551Z,61.46
2023-05-23T00:47:54.848Z,61.16
2023-05-23T00:50:21.249Z,61.01
2023-05-23T00:52:47.495Z,61.32
2023-05-23T00:55:16.190Z,61.30
2023-05-23T00:57:46.403Z,61.51
2023-05-23T01:00:14.980Z,61.20
2023-05-23T01:02:42.403Z,61.49
2023-05-23T01:05:11.754Z,61.37
2023-05-23T01:07:44.658Z,61.14
2023-05-23T01:10:13.710Z,61.38
2023-05-23T01:12:39.966Z,61.13
2023-05-23T01:15:13.665Z,61.16
2023-05-23T01:17:40.002Z,61.28
2023-05-23T01:20:06.256Z,60.98
2023-05-23T01:22:32.545Z,61.38
2023-05-23T01:25:01.822Z,60.99
2023-05-23T01:27:28.289Z,60.98
2023-05-23T01:29:54.545Z,61.35
2023-05-23T01:32:21.072Z,60.88
2023-05-23T01:34:48.540Z,61.08
2023-05-23T01:37:14.852Z,60.90
2023-05-23T01:39:44.624Z,61.00
2023-05-23T01:42:15.758Z,61.40
2023-05-23T01:44:44.654Z,61.15
2023-05-23T01:47:11.702Z,61.04
2023-05-23T01:49:43.096Z,61.17
2023-05-23T01:52:14.029Z,61.11
2023-05-23T01:54:40.298Z,60.94
2023-05-23T01:57:11.097Z,61.17
2023-05-23T01:59:41.990Z,61.17
2023-05-23T02:02:11.241Z,60.94
2023-05-23T02:04:37.557Z,61.16
2023-05-23T02:07:04.414Z,61.12
2023-05-23T02:09:30.670Z,61.00
2023-05-23T02:11:56.919Z,61.07
2023-05-23T02:14:28.712Z,60.93
2023-05-23T02:16:55.060Z,60.86
2023-05-23T02:19:21.626Z,60.76
2023-05-23T02:21:47.904Z,60.86
2023-05-23T02:24:15.105Z,60.80
2023-05-23T02:26:47.425Z,60.91
2023-05-23T02:29:13.670Z,60.80
2023-05-23T02:31:43.973Z,60.94
2023-05-23T02:34:10.357Z,61.31
2023-05-23T02:36:39.687Z,61.27
2023-05-23T02:39:06.024Z,60.84
2023-05-23T02:41:32.308Z,61.12
2023-05-23T02:43:58.556Z,61.20
2023-05-23T02:46:27.800Z,60.75
2023-05-23T02:48:54.079Z,61.28
2023-05-23T02:51:22.829Z,61.32
2023-05-23T02:53:49.068Z,60.81
2023-05-23T02:56:17.884Z,60.94
2023-05-23T02:58:47.355Z,61.32
2023-05-23T03:01:18.154Z,61.05
2023-05-23T03:03:44.600Z,60.92
2023-05-23T03:06:13.150Z,60.84
2023-05-23T03:08:39.537Z,60.83
2023-05-23T03:11:05.886Z,60.52
2023-05-23T03:13:32.220Z,60.94
2023-05-23T03:15:58.612Z,61.09
2023-05-23T03:18:25.029Z,61.01
2023-05-23T03:20:51.382Z,60.53
2023-05-23T03:23:25.814Z,60.90
2023-05-23T03:25:52.479Z,61.01
2023-05-23T03:28:21.248Z,61.07
2023-05-23T03:30:47.635Z,60.49
2023-05-23T03:33:20.606Z,60.67
2023-05-23T03:35:46.958Z,60.83
2023-05-23T03:38:13.635Z,60.95
2023-05-23T03:40:40.211Z,61.08
2023-05-23T03:43:06.611Z,61.05
2023-05-23T03:45:34.734Z,61.03
2023-05-23T03:48:01.139Z,60.77
2023-05-23T03:50:27.665Z,60.98
2023-05-23T03:52:54.009Z,60.98
2023-05-23T03:55:24.272Z,60.52
2023-05-23T03:57:54.088Z,61.11
2023-05-23T04:00:21.925Z,61.24
2023-05-23T04:02:50.652Z,60.97
2023-05-23T04:05:17.105Z,60.80
2023-05-23T04:07:46.149Z,60.97
2023-05-23T04:10:12.515Z,60.52
2023-05-23T04:12:38.874Z,60.54
2023-05-23T04:15:05.218Z,60.93
2023-05-23T04:17:31.664Z,60.94
2023-05-23T04:19:58.028Z,60.62
2023-05-23T04:22:24.313Z,60.70
2023-05-23T04:24:54.044Z,61.18
2023-05-23T04:27:24.088Z,60.76
2023-05-23T04:29:50.338Z,61.01
2023-05-23T04:32:17.797Z,61.17
2023-05-23T04:34:44.103Z,60.76
2023-05-23T04:37:10.534Z,61.18
2023-05-23T04:39:41.686Z,60.82
2023-05-23T04:42:07.932Z,61.31
2023-05-23T04:44:34.301Z,60.90
2023-05-23T04:47:00.695Z,61.22
2023-05-23T04:49:33.154Z,61.20
2023-05-23T04:51:59.537Z,61.26
2023-05-23T04:54:30.738Z,61.17
2023-05-23T04:56:58.492Z,61.03
2023-05-23T04:59:24.827Z,60.91
2023-05-23T05:01:51.116Z,61.01
2023-05-23T05:04:22.278Z,61.38
2023-05-23T05:06:48.691Z,61.29
2023-05-23T05:09:16.423Z,60.99
2023-05-23T05:11:42.784Z,61.39
2023-05-23T05:14:09.596Z,61.54
2023-05-23T05:16:35.894Z,61.44
2023-05-23T05:19:02.188Z,61.23
2023-05-23T05:21:28.739Z,61.27
2023-05-23T05:23:55.025Z,61.56
2023-05-23T05:26:26.134Z,61.43
2023-05-23T05:28:52.388Z,61.39
2023-05-23T05:31:18.694Z,61.54
2023-05-23T05:33:48.489Z,61.76
2023-05-23T05:36:24.723Z,61.63
2023-05-23T05:38:50.966Z,61.56
2023-05-23T05:41:27.204Z,61.64
2023-05-23T05:43:53.463Z,61.49
2023-05-23T05:46:19.772Z,62.03
2023-05-23T05:48:54.100Z,61.98
2023-05-23T05:51:30.321Z,61.54
2023-05-23T05:53:56.665Z,61.44
2023-05-23T05:56:26.112Z,61.52
2023-05-23T05:58:53.010Z,61.48
2023-05-23T06:01:19.295Z,61.70
2023-05-23T06:03:45.887Z,61.63
2023-05-23T06:06:16.322Z,61.41
2023-05-23T06:08:46.230Z,61.22
2023-05-23T06:11:13.614Z,61.44
2023-05-23T06:13:40.881Z,61.77
2023-05-23T06:16:08.098Z,61.74
2023-05-23T06:18:34.387Z,61.88
2023-05-23T06:21:00.671Z,62.00
2023-05-23T06:23:31.049Z,61.82
2023-05-23T06:25:57.445Z,61.82
2023-05-23T06:28:24.933Z,61.88
2023-05-23T06:30:51.180Z,61.87
2023-05-23T06:33:20.534Z,61.63
2023-05-23T06:35:56.765Z,61.97
2023-05-23T06:38:23.282Z,62.05
2023-05-23T06:40:49.582Z,62.24
2023-05-23T06:43:15.983Z,61.96
2023-05-23T06:45:43.083Z,61.92
2023-05-23T06:48:13.548Z,62.16
2023-05-23T06:50:42.474Z,62.42
2023-05-23T06:53:09.020Z,62.42
2023-05-23T06:55:38.191Z,62.36
2023-05-23T06:58:05.299Z,62.31
2023-05-23T07:00:31.693Z,62.36
2023-05-23T07:02:58.856Z,62.24
2023-05-23T07:05:25.359Z,62.41
2023-05-23T07:07:55.061Z,62.18
2023-05-23T07:10:24.599Z,62.25
2023-05-23T07:12:56.189Z,62.36
2023-05-23T07:15:22.472Z,62.28
2023-05-23T07:17:55.093Z,62.53
2023-05-23T07:20:21.509Z,62.22
2023-05-23T07:22:49.504Z,62.22
2023-05-23T07:25:19.331Z,62.59
2023-05-23T07:27:45.588Z,62.32
2023-05-23T07:30:11.885Z,62.44
2023-05-23T07:32:40.869Z,62.39
2023-05-23T07:35:07.201Z,62.10
2023-05-23T07:37:38.130Z,62.59
2023-05-23T07:40:04.465Z,62.47
2023-05-23T07:42:32.490Z,62.60
2023-05-23T07:45:02.855Z,62.24
2023-05-23T07:47:32.811Z,62.23
2023-05-23T07:49:59.159Z,62.40
2023-05-23T07:52:31.534Z,62.23
2023-05-23T07:54:57.802Z,62.19
2023-05-23T07:57:24.068Z,62.21
2023-05-23T07:59:50.406Z,62.59
2023-05-23T08:02:18.085Z,62.27
2023-05-23T08:04:44.542Z,62.58
2023-05-23T08:07:10.816Z,62.33
2023-05-23T08:09:37.109Z,62.32
2023-05-23T08:12:03.455Z,62.72
2023-05-23T08:14:49.807Z,62.51
2023-05-23T08:17:17.418Z,62.63
2023-05-23T08:19:43.828Z,63.14
2023-05-23T08:22:10.099Z,62.66
2023-05-23T08:24:40.264Z,62.45
2023-05-23T08:27:06.619Z,62.79
2023-05-23T08:29:33.643Z,62.52
2023-05-23T08:32:02.671Z,62.56
2023-05-23T08:34:30.314Z,62.54
2023-05-23T08:36:59.295Z,62.52
2023-05-23T08:39:28.412Z,62.63
2023-05-23T08:41:54.967Z,62.66
2023-05-23T08:44:21.230Z,62.38
2023-05-23T08:46:50.518Z,62.66
2023-05-23T08:49:16.797Z,62.55
2023-05-23T08:51:48.801Z,62.56
2023-05-23T08:54:22.121Z,62.41
2023-05-23T08:56:48.374Z,62.25
2023-05-23T08:59:14.682Z,62.47
2023-05-23T09:01:48.476Z,62.45
2023-05-23T09:04:17.642Z,62.67
2023-05-23T09:06:47.682Z,62.59
2023-05-23T09:09:15.978Z,62.37
2023-05-23T09:11:45.108Z,62.31
2023-05-23T09:14:11.415Z,62.23
2023-05-23T09:16:37.761Z,62.47
2023-05-23T09:19:04.153Z,62.59
2023-05-23T09:21:33.823Z,62.65
2023-05-23T09:24:00.188Z,62.57
2023-05-23T09:26:26.746Z,62.54
2023-05-23T09:28:53.107Z,62.48
2023-05-23T09:31:19.371Z,62.46
2023-05-23T09:33:48.304Z,62.50
2023-05-23T09:36:17.753Z,62.90
2023-05-23T09:38:44.019Z,62.72
2023-05-23T09:41:10.853Z,62.48
2023-05-23T09:43:37.086Z,62.47
2023-05-23T09:46:03.598Z,62.40
2023-05-23T09:48:29.856Z,62.87
2023-05-23T09:50:57.504Z,62.59
2023-05-23T09:53:26.039Z,62.66
2023-05-23T09:55:52.305Z,62.74
2023-05-23T09:58:18.562Z,62.83
2023-05-23T10:00:47.706Z,63.21
2023-05-23T10:03:14.397Z,62.47
2023-05-23T10:05:40.915Z,62.81
2023-05-23T10:08:09.527Z,62.42
2023-05-23T10:10:35.807Z,62.60
2023-05-23T10:13:02.056Z,62.87
2023-05-23T10:15:28.676Z,62.92
2023-05-23T10:17:57.162Z,62.76
2023-05-23T10:20:23.481Z,62.94
2023-05-23T10:22:53.848Z,62.42
2023-05-23T10:25:21.660Z,62.49
2023-05-23T10:27:49.508Z,62.93
2023-05-23T10:30:19.242Z,62.76
2023-05-23T10:32:47.774Z,62.59
2023-05-23T10:35:17.736Z,62.75
2023-05-23T10:37:43.998Z,62.77
2023-05-23T10:40:10.267Z,62.94
2023-05-23T10:42:40.694Z,62.64
2023-05-23T10:45:06.952Z,62.86
2023-05-23T10:47:33.362Z,62.59
2023-05-23T10:50:04.344Z,62.64
2023-05-23T10:52:34.935Z,62.83
2023-05-23T10:55:01.179Z,62.71
2023-05-23T10:57:33.152Z,62.66
2023-05-23T10:59:59.587Z,63.00
2023-05-23T11:02:27.892Z,62.72
2023-05-23T11:04:58.338Z,62.71
2023-05-23T11:07:25.892Z,62.90
2023-05-23T11:09:52.705Z,63.24
2023-05-23T11:12:19.031Z,63.41
2023-05-23T11:14:45.318Z,62.74
2023-05-23T11:17:14.168Z,63.05
2023-05-23T11:19:44.244Z,63.17
2023-05-23T11:22:10.912Z,63.30
2023-05-23T11:24:37.169Z,63.11
2023-05-23T11:27:10.841Z,62.91
2023-05-23T11:29:37.208Z,63.21
2023-05-23T11:32:03.526Z,63.32
2023-05-23T11:34:29.914Z,63.37
2023-05-23T11:36:56.170Z,63.12
2023-05-23T11:39:22.611Z,63.19
2023-05-23T11:41:52.674Z,63.25
2023-05-23T11:44:23.128Z,63.31
2023-05-23T11:46:49.390Z,63.28
2023-05-23T11:49:15.676Z,62.93
2023-05-23T11:51:41.965Z,63.15
2023-05-23T11:54:08.272Z,63.28
2023-05-23T11:56:34.546Z,63.31
2023-05-23T11:59:00.852Z,63.12
2023-05-23T12:01:31.218Z,63.08
2023-05-23T12:03:58.078Z,63.14
2023-05-23T12:06:25.820Z,63.18
2023-05-23T12:08:52.188Z,63.12
2023-05-23T12:11:18.959Z,63.35
2023-05-23T12:13:47.531Z,63.36
2023-05-23T12:16:13.857Z,63.30
2023-05-23T12:18:40.180Z,63.33
2023-05-23T12:21:13.362Z,63.39
2023-05-23T12:23:39.841Z,63.51
2023-05-23T12:26:06.195Z,63.11
2023-05-23T12:28:34.722Z,63.08
2023-05-23T12:31:01.002Z,63.36
2023-05-23T12:33:27.337Z,63.34
2023-05-23T12:35:56.904Z,63.08
2023-05-23T12:38:23.204Z,63.14
2023-05-23T12:40:49.528Z,63.45
2023-05-23T12:43:19.886Z,63.53
2023-05-23T12:45:47.154Z,63.57
2023-05-23T12:48:13.444Z,63.42
2023-05-23T12:50:42.219Z,63.15
2023-05-23T12:53:13.153Z,63.22
2023-05-23T12:55:39.633Z,63.26
2023-05-23T12:58:08.774Z,63.50
2023-05-23T13:00:35.062Z,63.53
2023-05-23T13:03:01.604Z,63.50
2023-05-23T13:05:30.061Z,63.21
2023-05-23T13:07:56.637Z,63.56
2023-05-23T13:10:22.890Z,63.56
2023-05-23T13:12:49.214Z,63.38
2023-05-23T13:15:18.584Z,63.62
2023-05-23T13:17:49.699Z,63.63
2023-05-23T13:20:22.082Z,63.62
2023-05-23T13:22:48.395Z,63.53
2023-05-23T13:25:16.029Z,63.72
2023-05-23T13:27:42.303Z,63.61
2023-05-23T13:30:09.281Z,63.32
2023-05-23T13:32:35.587Z,63.28
2023-05-23T13:35:02.040Z,63.69
2023-05-23T13:37:28.374Z,63.89
2023-05-23T13:39:58.768Z,63.66
2023-05-23T13:42:25.120Z,63.90
2023-05-23T13:44:55.607Z,63.91
2023-05-23T13:47:27.193Z,63.86
2023-05-23T13:49:53.489Z,64.00
2023-05-23T13:52:26.552Z,64.17
2023-05-23T13:54:52.862Z,63.96
2023-05-23T13:57:19.164Z,63.77
2023-05-23T13:59:45.438Z,63.67
2023-05-23T14:02:14.243Z,63.71
2023-05-23T14:04:42.876Z,63.66
2023-05-23T14:07:10.944Z,63.74
2023-05-23T14:09:37.196Z,64.15
2023-05-23T14:12:06.212Z,63.88
2023-05-23T14:14:32.533Z,64.28
2023-05-23T14:17:02.751Z,63.78
2023-05-23T14:19:31.395Z,63.81
2023-05-23T14:21:58.573Z,63.92
2023-05-23T14:24:30.858Z,63.89
2023-05-23T14:27:01.986Z,63.95
2023-05-23T14:29:28.813Z,64.21
2023-05-23T14:31:57.293Z,63.94
2023-05-23T14:34:26.956Z,64.11
2023-05-23T14:36:53.478Z,63.82
2023-05-23T14:39:19.752Z,64.17
2023-05-23T14:41:46.058Z,64.61
2023-05-23T14:44:12.883Z,64.76
2023-05-23T14:46:39.345Z,64.41
2023-05-23T14:49:05.658Z,65.19
2023-05-23T14:51:44.908Z,65.26
2023-05-23T14:54:20.449Z,64.95
2023-05-23T14:56:46.952Z,65.10
2023-05-23T14:59:17.961Z,65.38
2023-05-23T15:01:45.208Z,65.43
2023-05-23T15:04:11.771Z,65.44
2023-05-23T15:06:41.392Z,65.78
2023-05-23T15:09:07.826Z,65.68
2023-05-23T15:11:37.955Z,65.29
2023-05-23T15:14:04.442Z,65.63
2023-05-23T15:16:30.816Z,65.46
2023-05-23T15:19:02.417Z,65.62
2023-05-23T15:21:33.128Z,65.61
2023-05-23T15:23:59.410Z,65.42
2023-05-23T15:26:26.072Z,65.50
2023-05-23T15:28:55.126Z,65.80
2023-05-23T15:31:21.482Z,65.79
2023-05-23T15:33:51.101Z,65.77
2023-05-23T15:36:17.477Z,66.16
2023-05-23T15:38:48.276Z,66.18
2023-05-23T15:41:22.965Z,66.16
2023-05-23T15:43:49.269Z,66.52
2023-05-23T15:46:20.097Z,65.86
2023-05-23T15:48:46.434Z,66.11
2023-05-23T15:51:12.770Z,66.34
2023-05-23T15:53:59.666Z,66.45
2023-05-23T15:56:31.790Z,66.26
2023-05-23T15:59:03.795Z,65.99
2023-05-23T16:01:30.175Z,66.16
2023-05-23T16:03:56.552Z,66.62
2023-05-23T16:06:29.627Z,66.37
2023-05-23T16:08:55.925Z,66.78
2023-05-23T16:11:25.843Z,66.37
2023-05-23T16:13:52.191Z,66.51
2023-05-23T16:16:23.994Z,66.07
2023-05-23T16:18:50.323Z,66.75
2023-05-23T16:21:16.605Z,66.72
2023-05-23T16:23:42.943Z,66.65
2023-05-23T16:26:09.279Z,66.93
2023-05-23T16:28:40.646Z,67.27
2023-05-23T16:31:08.540Z,67.34
2023-05-23T16:33:40.324Z,67.05
2023-05-23T16:36:12.960Z,67.57
2023-05-23T16:38:43.715Z,67.58
2023-05-23T16:41:15.847Z,67.40
2023-05-23T16:43:48.155Z,67.04
2023-05-23T16:46:14.712Z,67.72
2023-05-23T16:48:41.003Z,67.45
2023-05-23T16:51:07.538Z,67.72
2023-05-23T16:53:33.954Z,67.72
2023-05-23T16:56:03.603Z,67.54
2023-05-23T16:58:29.898Z,67.79
2023-05-23T17:00:57.643Z,67.54
2023-05-23T17:03:24.028Z,67.71
2023-05-23T17:05:50.576Z,67.73
2023-05-23T17:08:16.961Z,67.72
2023-05-23T17:10:49.084Z,67.68
2023-05-23T17:13:19.863Z,67.20
2023-05-23T17:15:46.219Z,67.65
2023-05-23T17:18:15.586Z,67.90
2023-05-23T17:20:44.256Z,67.76
2023-05-23T17:23:10.573Z,67.83
2023-05-23T17:25:36.876Z,67.76
2023-05-23T17:28:03.198Z,67.76
2023-05-23T17:30:29.467Z,67.83
2023-05-23T17:32:58.998Z,67.83
2023-05-23T17:35:30.161Z,68.01
2023-05-23T17:37:56.483Z,67.87
2023-05-23T17:40:22.884Z,67.63
2023-05-23T17:42:49.403Z,67.67
2023-05-23T17:45:15.656Z,67.66
2023-05-23T17:47:42.126Z,67.70
2023-05-23T17:50:11.060Z,68.00
2023-05-23T17:52:37.340Z,68.09
2023-05-23T17:55:03.619Z,67.63
2023-05-23T17:57:29.909Z,67.49
2023-05-23T17:59:56.200Z,67.87
2023-05-23T18:02:22.840Z,68.18
2023-05-23T18:04:49.395Z,68.10
2023-05-23T18:07:15.798Z,67.65
2023-05-23T18:09:42.084Z,67.86
2023-05-23T18:12:08.355Z,67.74
2023-05-23T18:14:34.608Z,67.64
2023-05-23T18:17:01.013Z,68.11
2023-05-23T18:19:28.481Z,67.96
2023-05-23T18:21:54.939Z,68.02
2023-05-23T18:24:21.183Z,67.78
2023-05-23T18:26:47.614Z,68.39
2023-05-23T18:29:13.944Z,68.35
2023-05-23T18:31:43.276Z,67.81
2023-05-23T18:34:09.613Z,67.67
2023-05-23T18:36:35.927Z,67.64
2023-05-23T18:39:02.196Z,67.53
2023-05-23T18:41:28.482Z,67.18
2023-05-23T18:43:54.731Z,67.55
2023-05-23T18:46:23.208Z,67.11
2023-05-23T18:48:49.540Z,67.42
2023-05-23T18:51:15.798Z,67.45
2023-05-23T18:53:43.205Z,67.38
2023-05-23T18:56:11.361Z,67.39
2023-05-23T18:58:37.980Z,67.06
2023-05-23T19:01:04.460Z,67.20
2023-05-23T19:03:30.857Z,67.26
2023-05-23T19:05:57.277Z,66.86
2023-05-23T19:08:23.520Z,67.29
2023-05-23T19:10:49.801Z,66.85
2023-05-23T19:13:16.241Z,67.21
2023-05-23T19:15:42.786Z,66.78
2023-05-23T19:18:09.135Z,67.20
2023-05-23T19:20:35.440Z,67.05
2023-05-23T19:23:04.260Z,66.91
2023-05-23T19:25:30.705Z,66.48
2023-05-23T19:27:57.034Z,66.69
2023-05-23T19:30:23.691Z,66.82
2023-05-23T19:32:49.988Z,66.82
2023-05-23T19:35:17.194Z,66.75
2023-05-23T19:37:43.755Z,66.50
2023-05-23T19:40:11.825Z,66.82
2023-05-23T19:42:38.086Z,66.94
2023-05-23T19:45:05.787Z,66.86
2023-05-23T19:47:32.551Z,66.61
2023-05-23T19:49:58.884Z,66.57
2023-05-23T19:52:25.208Z,66.77
2023-05-23T19:54:51.501Z,66.33
2023-05-23T19:57:18.616Z,66.70
2023-05-23T19:59:46.000Z,66.58
2023-05-23T20:02:12.310Z,66.79
2023-05-23T20:04:38.584Z,66.80
2023-05-23T20:07:06.626Z,66.42
2023-05-23T20:09:33.424Z,66.60
2023-05-23T20:11:59.679Z,66.60
2023-05-23T20:14:28.109Z,66.76
2023-05-23T20:16:55.664Z,66.55
2023-05-23T20:19:22.295Z,66.67
2023-05-23T20:21:48.597Z,66.74
2023-05-23T20:24:17.306Z,66.55
2023-05-23T20:26:44.336Z,66.69
2023-05-23T20:29:13.359Z,66.73
2023-05-23T20:31:43.756Z,66.62
2023-05-23T20:34:13.341Z,66.59
2023-05-23T20:36:39.639Z,66.43
2023-05-23T20:39:06.156Z,66.13
2023-05-23T20:41:32.432Z,66.33
2023-05-23T20:44:01.999Z,66.26
2023-05-23T20:46:28.381Z,66.03
2023-05-23T20:48:58.125Z,66.94
2023-05-23T20:51:25.363Z,66.30
2023-05-23T20:53:55.415Z,66.30
2023-05-23T20:56:22.574Z,66.31
2023-05-23T20:58:48.912Z,66.40
2023-05-23T21:01:15.265Z,65.99
2023-05-23T21:03:41.665Z,66.22
2023-05-23T21:06:10.106Z,66.25
2023-05-23T21:08:41.061Z,66.35
2023-05-23T21:11:07.328Z,66.21
2023-05-23T21:13:34.812Z,62.99
2023-05-23T21:16:05.506Z,65.41
2023-05-23T21:18:33.051Z,65.98
2023-05-23T21:20:59.371Z,65.84
2023-05-23T21:23:28.985Z,65.69
2023-05-23T21:25:55.789Z,64.68
2023-05-23T21:28:22.084Z,65.01
2023-05-23T21:30:49.850Z,64.78
2023-05-23T21:33:18.542Z,65.05
2023-05-23T21:35:47.654Z,64.64
2023-05-23T21:38:13.924Z,64.77
2023-05-23T21:40:46.140Z,64.65
2023-05-23T21:43:12.561Z,64.43
2023-05-23T21:45:42.262Z,64.38
2023-05-23T21:48:16.067Z,64.38
2023-05-23T21:50:46.250Z,64.25
2023-05-23T21:53:18.310Z,64.57
2023-05-23T21:55:50.772Z,64.27
2023-05-23T21:58:17.079Z,64.18
2023-05-23T22:00:43.881Z,64.05
2023-05-23T22:03:11.847Z,64.00
2023-05-23T22:05:41.567Z,64.20
2023-05-23T22:08:07.860Z,64.07
2023-05-23T22:10:34.158Z,64.21
2023-05-23T22:13:07.621Z,64.17
2023-05-23T22:15:34.093Z,64.22
2023-05-23T22:18:00.418Z,64.06
2023-05-23T22:20:26.856Z,63.72
2023-05-23T22:22:53.564Z,63.83
2023-05-23T22:25:22.558Z,63.95
2023-05-23T22:27:55.023Z,64.05
2023-05-23T22:30:21.941Z,63.95
2023-05-23T22:32:48.200Z,63.65
2023-05-23T22:35:14.461Z,63.88
2023-05-23T22:37:43.483Z,63.64
2023-05-23T22:40:09.782Z,63.59
2023-05-23T22:42:37.855Z,64.07
2023-05-23T22:45:06.506Z,63.76
2023-05-23T22:47:32.877Z,63.82
2023-05-23T22:50:00.349Z,63.30
2023-05-23T22:52:29.149Z,63.37
2023-05-23T22:54:55.525Z,63.49
2023-05-23T22:57:24.618Z,63.74
2023-05-23T22:59:56.840Z,63.38
2023-05-23T23:02:25.641Z,63.69
2023-05-23T23:04:53.145Z,63.52
2023-05-23T23:07:19.684Z,63.83
2023-05-23T23:09:45.990Z,63.35
2023-05-23T23:12:12.274Z,63.61
2023-05-23T23:14:39.656Z,63.60
2023-05-23T23:17:06.057Z,63.47
2023-05-23T23:19:32.673Z,63.46
2023-05-23T23:22:03.453Z,63.06
2023-05-23T23:24:29.721Z,63.13
2023-05-23T23:26:58.079Z,63.38
2023-05-23T23:29:26.639Z,63.29
2023-05-23T23:31:57.472Z,63.43
2023-05-23T23:34:23.866Z,63.32
2023-05-23T23:36:50.133Z,62.87
2023-05-23T23:39:16.423Z,63.03
2023-05-23T23:41:45.880Z,63.28
2023-05-23T23:44:12.159Z,63.04
2023-05-23T23:46:40.677Z,62.97
2023-05-23T23:49:06.959Z,63.23
2023-05-23T23:51:33.208Z,63.11
2023-05-23T23:54:02.031Z,62.84
2023-05-23T23:56:28.345Z,62.90
2023-05-23T23:58:54.753Z,62.79
